sensor_id;sensor_type;location;lat;lon;timestamp;P1;durP1;ratioP1;P2;durP2;ratioP2
21206;SDS011;10761;48.532;8.026;2024-01-10T00:01:23;29.50;;;16.33;;
21206;SDS011;10761;48.532;8.026;2024-01-10T00:03:52;28.98;;;16.50;;
21206;SDS011;10761;48.532;8.026;2024-01-10T00:06:18;28.85;;;16.15;;
21206;SDS011;10761;48.532;8.026;2024-01-10T00:08:44;29.70;;;16.00;;
21206;SDS011;10761;48.532;8.026;2024-01-10T00:11:09;28.10;;;15.63;;
21206;SDS011;10761;48.532;8.026;2024-01-10T00:13:35;30.55;;;16.80;;
21206;SDS011;10761;48.532;8.026;2024-01-10T00:16:00;30.85;;;16.63;;
21206;SDS011;10761;48.532;8.026;2024-01-10T00:18:26;29.80;;;15.60;;
21206;SDS011;10761;48.532;8.026;2024-01-10T00:20:52;30.05;;;15.77;;
21206;SDS011;10761;48.532;8.026;2024-01-10T00:23:20;26.73;;;15.32;;
21206;SDS011;10761;48.532;8.026;2024-01-10T00:25:46;29.65;;;15.38;;
21206;SDS011;10761;48.532;8.026;2024-01-10T00:28:12;25.92;;;15.30;;
21206;SDS011;10761;48.532;8.026;2024-01-10T00:30:38;27.17;;;15.88;;
21206;SDS011;10761;48.532;8.026;2024-01-10T00:33:04;28.35;;;15.52;;
21206;SDS011;10761;48.532;8.026;2024-01-10T00:35:30;28.08;;;15.98;;
21206;SDS011;10761;48.532;8.026;2024-01-10T00:37:55;31.42;;;16.10;;
21206;SDS011;10761;48.532;8.026;2024-01-10T00:40:21;26.70;;;15.43;;
21206;SDS011;10761;48.532;8.026;2024-01-10T00:42:47;29.75;;;15.57;;
21206;SDS011;10761;48.532;8.026;2024-01-10T00:45:13;32.55;;;17.90;;
21206;SDS011;10761;48.532;8.026;2024-01-10T00:47:39;33.13;;;19.08;;
21206;SDS011;10761;48.532;8.026;2024-01-10T00:50:05;37.55;;;19.00;;
21206;SDS011;10761;48.532;8.026;2024-01-10T00:52:30;32.88;;;17.70;;
21206;SDS011;10761;48.532;8.026;2024-01-10T00:54:57;32.60;;;17.33;;
21206;SDS011;10761;48.532;8.026;2024-01-10T00:57:23;33.45;;;18.48;;
21206;SDS011;10761;48.532;8.026;2024-01-10T00:59:48;31.95;;;17.77;;
21206;SDS011;10761;48.532;8.026;2024-01-10T01:02:14;30.90;;;17.58;;
21206;SDS011;10761;48.532;8.026;2024-01-10T01:04:39;34.70;;;18.33;;
21206;SDS011;10761;48.532;8.026;2024-01-10T01:07:05;34.05;;;18.23;;
21206;SDS011;10761;48.532;8.026;2024-01-10T01:09:30;34.90;;;18.27;;
21206;SDS011;10761;48.532;8.026;2024-01-10T01:11:56;32.95;;;18.25;;
21206;SDS011;10761;48.532;8.026;2024-01-10T01:14:21;29.75;;;17.58;;
21206;SDS011;10761;48.532;8.026;2024-01-10T01:16:47;32.90;;;17.27;;
21206;SDS011;10761;48.532;8.026;2024-01-10T01:19:12;36.88;;;18.17;;
21206;SDS011;10761;48.532;8.026;2024-01-10T01:21:38;34.25;;;17.63;;
21206;SDS011;10761;48.532;8.026;2024-01-10T01:24:03;33.22;;;18.55;;
21206;SDS011;10761;48.532;8.026;2024-01-10T01:26:29;32.25;;;17.70;;
21206;SDS011;10761;48.532;8.026;2024-01-10T01:28:55;33.78;;;18.48;;
21206;SDS011;10761;48.532;8.026;2024-01-10T01:31:20;35.92;;;18.42;;
21206;SDS011;10761;48.532;8.026;2024-01-10T01:33:46;38.72;;;19.40;;
21206;SDS011;10761;48.532;8.026;2024-01-10T01:36:12;37.55;;;19.35;;
21206;SDS011;10761;48.532;8.026;2024-01-10T01:38:37;40.53;;;19.42;;
21206;SDS011;10761;48.532;8.026;2024-01-10T01:41:03;35.05;;;18.88;;
21206;SDS011;10761;48.532;8.026;2024-01-10T01:43:30;33.33;;;17.95;;
21206;SDS011;10761;48.532;8.026;2024-01-10T01:45:57;33.58;;;18.20;;
21206;SDS011;10761;48.532;8.026;2024-01-10T01:48:23;34.97;;;18.98;;
21206;SDS011;10761;48.532;8.026;2024-01-10T01:50:57;34.17;;;18.67;;
21206;SDS011;10761;48.532;8.026;2024-01-10T01:53:25;36.13;;;18.90;;
21206;SDS011;10761;48.532;8.026;2024-01-10T01:55:51;31.08;;;17.90;;
21206;SDS011;10761;48.532;8.026;2024-01-10T01:58:18;34.83;;;18.67;;
21206;SDS011;10761;48.532;8.026;2024-01-10T02:00:45;35.10;;;18.15;;
21206;SDS011;10761;48.532;8.026;2024-01-10T02:03:11;34.33;;;18.80;;
21206;SDS011;10761;48.532;8.026;2024-01-10T02:05:37;35.33;;;19.00;;
21206;SDS011;10761;48.532;8.026;2024-01-10T02:08:02;38.88;;;18.90;;
21206;SDS011;10761;48.532;8.026;2024-01-10T02:10:28;32.28;;;17.80;;
21206;SDS011;10761;48.532;8.026;2024-01-10T02:12:54;30.10;;;17.25;;
21206;SDS011;10761;48.532;8.026;2024-01-10T02:15:20;31.42;;;16.83;;
21206;SDS011;10761;48.532;8.026;2024-01-10T02:17:45;29.35;;;15.82;;
21206;SDS011;10761;48.532;8.026;2024-01-10T02:20:14;30.13;;;16.30;;
21206;SDS011;10761;48.532;8.026;2024-01-10T02:22:45;27.88;;;16.08;;
21206;SDS011;10761;48.532;8.026;2024-01-10T02:25:11;28.77;;;15.65;;
21206;SDS011;10761;48.532;8.026;2024-01-10T02:27:39;29.17;;;15.23;;
21206;SDS011;10761;48.532;8.026;2024-01-10T02:30:06;30.00;;;16.15;;
21206;SDS011;10761;48.532;8.026;2024-01-10T02:32:32;28.88;;;15.98;;
21206;SDS011;10761;48.532;8.026;2024-01-10T02:34:58;31.38;;;15.60;;
21206;SDS011;10761;48.532;8.026;2024-01-10T02:37:24;36.58;;;18.77;;
21206;SDS011;10761;48.532;8.026;2024-01-10T02:39:50;39.92;;;21.02;;
21206;SDS011;10761;48.532;8.026;2024-01-10T02:42:16;58.92;;;29.33;;
21206;SDS011;10761;48.532;8.026;2024-01-10T02:44:42;43.80;;;23.05;;
21206;SDS011;10761;48.532;8.026;2024-01-10T02:47:08;36.85;;;20.75;;
21206;SDS011;10761;48.532;8.026;2024-01-10T02:49:34;38.72;;;20.70;;
21206;SDS011;10761;48.532;8.026;2024-01-10T02:51:59;35.40;;;19.42;;
21206;SDS011;10761;48.532;8.026;2024-01-10T02:54:25;36.60;;;17.48;;
21206;SDS011;10761;48.532;8.026;2024-01-10T02:56:50;35.13;;;15.85;;
21206;SDS011;10761;48.532;8.026;2024-01-10T02:59:16;26.65;;;15.98;;
21206;SDS011;10761;48.532;8.026;2024-01-10T03:01:43;27.30;;;15.27;;
21206;SDS011;10761;48.532;8.026;2024-01-10T03:04:09;34.92;;;16.92;;
21206;SDS011;10761;48.532;8.026;2024-01-10T03:06:35;34.17;;;15.88;;
21206;SDS011;10761;48.532;8.026;2024-01-10T03:09:00;28.05;;;16.02;;
21206;SDS011;10761;48.532;8.026;2024-01-10T03:11:26;28.08;;;15.55;;
21206;SDS011;10761;48.532;8.026;2024-01-10T03:13:54;33.65;;;16.92;;
21206;SDS011;10761;48.532;8.026;2024-01-10T03:16:29;28.02;;;15.70;;
21206;SDS011;10761;48.532;8.026;2024-01-10T03:18:55;27.42;;;16.40;;
21206;SDS011;10761;48.532;8.026;2024-01-10T03:21:21;29.55;;;16.55;;
21206;SDS011;10761;48.532;8.026;2024-01-10T03:23:50;32.42;;;16.90;;
21206;SDS011;10761;48.532;8.026;2024-01-10T03:26:16;34.92;;;17.17;;
21206;SDS011;10761;48.532;8.026;2024-01-10T03:28:41;34.03;;;16.10;;
21206;SDS011;10761;48.532;8.026;2024-01-10T03:31:07;28.60;;;16.17;;
21206;SDS011;10761;48.532;8.026;2024-01-10T03:33:32;30.20;;;16.30;;
21206;SDS011;10761;48.532;8.026;2024-01-10T03:35:58;32.75;;;16.63;;
21206;SDS011;10761;48.532;8.026;2024-01-10T03:38:23;28.67;;;15.80;;
21206;SDS011;10761;48.532;8.026;2024-01-10T03:40:49;32.25;;;16.38;;
21206;SDS011;10761;48.532;8.026;2024-01-10T03:43:14;29.00;;;16.13;;
21206;SDS011;10761;48.532;8.026;2024-01-10T03:45:41;29.75;;;15.65;;
21206;SDS011;10761;48.532;8.026;2024-01-10T03:48:07;27.98;;;15.07;;
21206;SDS011;10761;48.532;8.026;2024-01-10T03:50:33;28.80;;;15.55;;
21206;SDS011;10761;48.532;8.026;2024-01-10T03:52:58;28.45;;;16.00;;
21206;SDS011;10761;48.532;8.026;2024-01-10T03:55:24;28.30;;;15.35;;
21206;SDS011;10761;48.532;8.026;2024-01-10T03:57:49;30.92;;;16.30;;
21206;SDS011;10761;48.532;8.026;2024-01-10T04:00:15;29.88;;;15.93;;
21206;SDS011;10761;48.532;8.026;2024-01-10T04:02:41;27.00;;;15.40;;
21206;SDS011;10761;48.532;8.026;2024-01-10T04:05:10;28.10;;;15.38;;
21206;SDS011;10761;48.532;8.026;2024-01-10T04:07:37;30.23;;;15.57;;
21206;SDS011;10761;48.532;8.026;2024-01-10T04:10:04;34.17;;;15.68;;
21206;SDS011;10761;48.532;8.026;2024-01-10T04:12:32;26.88;;;15.63;;
21206;SDS011;10761;48.532;8.026;2024-01-10T04:14:58;28.20;;;15.13;;
21206;SDS011;10761;48.532;8.026;2024-01-10T04:17:23;28.77;;;15.52;;
21206;SDS011;10761;48.532;8.026;2024-01-10T04:19:49;25.38;;;15.55;;
21206;SDS011;10761;48.532;8.026;2024-01-10T04:22:14;28.90;;;15.27;;
21206;SDS011;10761;48.532;8.026;2024-01-10T04:24:40;30.30;;;15.75;;
21206;SDS011;10761;48.532;8.026;2024-01-10T04:27:05;27.60;;;15.93;;
21206;SDS011;10761;48.532;8.026;2024-01-10T04:29:31;28.45;;;15.43;;
21206;SDS011;10761;48.532;8.026;2024-01-10T04:31:56;27.52;;;15.10;;
21206;SDS011;10761;48.532;8.026;2024-01-10T04:34:22;27.30;;;15.50;;
21206;SDS011;10761;48.532;8.026;2024-01-10T04:36:49;27.77;;;15.18;;
21206;SDS011;10761;48.532;8.026;2024-01-10T04:39:15;28.88;;;16.23;;
21206;SDS011;10761;48.532;8.026;2024-01-10T04:41:40;28.98;;;16.77;;
21206;SDS011;10761;48.532;8.026;2024-01-10T04:44:06;26.38;;;15.73;;
21206;SDS011;10761;48.532;8.026;2024-01-10T04:46:31;28.60;;;16.20;;
21206;SDS011;10761;48.532;8.026;2024-01-10T04:48:58;26.63;;;15.50;;
21206;SDS011;10761;48.532;8.026;2024-01-10T04:51:24;27.90;;;15.27;;
21206;SDS011;10761;48.532;8.026;2024-01-10T04:53:49;25.52;;;15.18;;
21206;SDS011;10761;48.532;8.026;2024-01-10T04:56:15;30.33;;;16.00;;
21206;SDS011;10761;48.532;8.026;2024-01-10T04:58:40;25.63;;;14.20;;
21206;SDS011;10761;48.532;8.026;2024-01-10T05:01:06;29.25;;;15.80;;
21206;SDS011;10761;48.532;8.026;2024-01-10T05:03:31;27.55;;;15.18;;
21206;SDS011;10761;48.532;8.026;2024-01-10T05:05:57;27.33;;;16.08;;
21206;SDS011;10761;48.532;8.026;2024-01-10T05:08:22;27.38;;;15.20;;
21206;SDS011;10761;48.532;8.026;2024-01-10T05:10:48;27.30;;;15.55;;
21206;SDS011;10761;48.532;8.026;2024-01-10T05:13:14;28.85;;;15.93;;
21206;SDS011;10761;48.532;8.026;2024-01-10T05:15:40;24.90;;;14.93;;
21206;SDS011;10761;48.532;8.026;2024-01-10T05:18:05;30.95;;;16.02;;
21206;SDS011;10761;48.532;8.026;2024-01-10T05:20:31;31.48;;;16.00;;
21206;SDS011;10761;48.532;8.026;2024-01-10T05:22:57;29.33;;;16.33;;
21206;SDS011;10761;48.532;8.026;2024-01-10T05:25:24;29.30;;;15.43;;
21206;SDS011;10761;48.532;8.026;2024-01-10T05:27:49;28.67;;;16.33;;
21206;SDS011;10761;48.532;8.026;2024-01-10T05:30:15;29.35;;;15.88;;
21206;SDS011;10761;48.532;8.026;2024-01-10T05:32:41;28.52;;;16.08;;
21206;SDS011;10761;48.532;8.026;2024-01-10T05:35:08;29.55;;;15.90;;
21206;SDS011;10761;48.532;8.026;2024-01-10T05:37:35;35.72;;;19.98;;
21206;SDS011;10761;48.532;8.026;2024-01-10T05:40:01;32.63;;;18.55;;
21206;SDS011;10761;48.532;8.026;2024-01-10T05:42:27;36.60;;;18.60;;
21206;SDS011;10761;48.532;8.026;2024-01-10T05:44:52;31.75;;;16.98;;
21206;SDS011;10761;48.532;8.026;2024-01-10T05:47:18;31.05;;;17.38;;
21206;SDS011;10761;48.532;8.026;2024-01-10T05:49:43;32.13;;;17.70;;
21206;SDS011;10761;48.532;8.026;2024-01-10T05:52:09;35.38;;;19.23;;
21206;SDS011;10761;48.532;8.026;2024-01-10T05:54:35;33.95;;;19.88;;
21206;SDS011;10761;48.532;8.026;2024-01-10T05:57:00;49.05;;;23.98;;
21206;SDS011;10761;48.532;8.026;2024-01-10T05:59:27;42.47;;;21.05;;
21206;SDS011;10761;48.532;8.026;2024-01-10T06:01:52;41.55;;;21.58;;
21206;SDS011;10761;48.532;8.026;2024-01-10T06:04:18;38.30;;;19.20;;
21206;SDS011;10761;48.532;8.026;2024-01-10T06:06:43;36.13;;;19.80;;
21206;SDS011;10761;48.532;8.026;2024-01-10T06:09:10;32.42;;;18.30;;
21206;SDS011;10761;48.532;8.026;2024-01-10T06:11:40;30.98;;;16.90;;
21206;SDS011;10761;48.532;8.026;2024-01-10T06:14:06;31.33;;;17.15;;
21206;SDS011;10761;48.532;8.026;2024-01-10T06:16:32;30.58;;;18.10;;
21206;SDS011;10761;48.532;8.026;2024-01-10T06:18:58;30.45;;;16.95;;
21206;SDS011;10761;48.532;8.026;2024-01-10T06:21:23;33.10;;;16.52;;
21206;SDS011;10761;48.532;8.026;2024-01-10T06:23:49;30.00;;;16.58;;
21206;SDS011;10761;48.532;8.026;2024-01-10T06:26:14;36.10;;;17.50;;
21206;SDS011;10761;48.532;8.026;2024-01-10T06:28:40;28.55;;;16.35;;
21206;SDS011;10761;48.532;8.026;2024-01-10T06:31:06;33.88;;;17.13;;
21206;SDS011;10761;48.532;8.026;2024-01-10T06:33:31;30.70;;;17.08;;
21206;SDS011;10761;48.532;8.026;2024-01-10T06:35:57;31.85;;;17.63;;
21206;SDS011;10761;48.532;8.026;2024-01-10T06:38:23;36.92;;;17.77;;
21206;SDS011;10761;48.532;8.026;2024-01-10T06:40:49;33.28;;;17.65;;
21206;SDS011;10761;48.532;8.026;2024-01-10T06:43:15;32.50;;;18.23;;
21206;SDS011;10761;48.532;8.026;2024-01-10T06:45:41;32.78;;;19.20;;
21206;SDS011;10761;48.532;8.026;2024-01-10T06:48:07;33.47;;;18.23;;
21206;SDS011;10761;48.532;8.026;2024-01-10T06:50:33;32.08;;;17.10;;
21206;SDS011;10761;48.532;8.026;2024-01-10T06:52:59;32.17;;;17.80;;
21206;SDS011;10761;48.532;8.026;2024-01-10T06:55:24;33.67;;;17.92;;
21206;SDS011;10761;48.532;8.026;2024-01-10T06:57:51;33.20;;;17.48;;
21206;SDS011;10761;48.532;8.026;2024-01-10T07:00:18;31.52;;;17.52;;
21206;SDS011;10761;48.532;8.026;2024-01-10T07:02:47;29.98;;;17.27;;
21206;SDS011;10761;48.532;8.026;2024-01-10T07:05:14;30.65;;;17.20;;
21206;SDS011;10761;48.532;8.026;2024-01-10T07:07:39;32.03;;;17.08;;
21206;SDS011;10761;48.532;8.026;2024-01-10T07:10:05;30.80;;;17.48;;
21206;SDS011;10761;48.532;8.026;2024-01-10T07:12:33;29.90;;;16.85;;
21206;SDS011;10761;48.532;8.026;2024-01-10T07:14:59;31.25;;;17.13;;
21206;SDS011;10761;48.532;8.026;2024-01-10T07:17:25;30.55;;;16.38;;
21206;SDS011;10761;48.532;8.026;2024-01-10T07:19:51;32.05;;;17.15;;
21206;SDS011;10761;48.532;8.026;2024-01-10T07:22:16;31.15;;;17.30;;
21206;SDS011;10761;48.532;8.026;2024-01-10T07:24:45;31.52;;;16.52;;
21206;SDS011;10761;48.532;8.026;2024-01-10T07:27:11;32.80;;;16.23;;
21206;SDS011;10761;48.532;8.026;2024-01-10T07:29:39;30.20;;;16.90;;
21206;SDS011;10761;48.532;8.026;2024-01-10T07:32:05;34.58;;;16.67;;
21206;SDS011;10761;48.532;8.026;2024-01-10T07:34:36;29.08;;;16.45;;
21206;SDS011;10761;48.532;8.026;2024-01-10T07:37:02;30.33;;;16.90;;
21206;SDS011;10761;48.532;8.026;2024-01-10T07:39:28;31.85;;;18.08;;
21206;SDS011;10761;48.532;8.026;2024-01-10T07:41:54;34.00;;;18.23;;
21206;SDS011;10761;48.532;8.026;2024-01-10T07:44:20;30.42;;;18.05;;
21206;SDS011;10761;48.532;8.026;2024-01-10T07:46:46;33.55;;;17.63;;
21206;SDS011;10761;48.532;8.026;2024-01-10T07:49:12;55.47;;;31.13;;
21206;SDS011;10761;48.532;8.026;2024-01-10T07:51:37;57.28;;;31.65;;
21206;SDS011;10761;48.532;8.026;2024-01-10T07:54:03;55.25;;;29.15;;
21206;SDS011;10761;48.532;8.026;2024-01-10T07:56:28;66.32;;;33.10;;
21206;SDS011;10761;48.532;8.026;2024-01-10T07:58:55;59.10;;;30.77;;
21206;SDS011;10761;48.532;8.026;2024-01-10T08:01:20;71.47;;;37.40;;
21206;SDS011;10761;48.532;8.026;2024-01-10T08:03:46;56.00;;;31.13;;
21206;SDS011;10761;48.532;8.026;2024-01-10T08:06:13;52.92;;;27.27;;
21206;SDS011;10761;48.532;8.026;2024-01-10T08:08:38;42.20;;;21.92;;
21206;SDS011;10761;48.532;8.026;2024-01-10T08:11:04;36.75;;;18.88;;
21206;SDS011;10761;48.532;8.026;2024-01-10T08:13:30;34.38;;;19.52;;
21206;SDS011;10761;48.532;8.026;2024-01-10T08:15:56;36.38;;;20.52;;
21206;SDS011;10761;48.532;8.026;2024-01-10T08:18:21;36.70;;;19.90;;
21206;SDS011;10761;48.532;8.026;2024-01-10T08:20:48;36.88;;;20.00;;
21206;SDS011;10761;48.532;8.026;2024-01-10T08:23:13;41.15;;;21.05;;
21206;SDS011;10761;48.532;8.026;2024-01-10T08:25:39;34.97;;;19.60;;
21206;SDS011;10761;48.532;8.026;2024-01-10T08:28:05;34.08;;;18.27;;
21206;SDS011;10761;48.532;8.026;2024-01-10T08:30:31;39.85;;;19.98;;
21206;SDS011;10761;48.532;8.026;2024-01-10T08:32:57;34.25;;;18.70;;
21206;SDS011;10761;48.532;8.026;2024-01-10T08:35:24;33.53;;;18.92;;
21206;SDS011;10761;48.532;8.026;2024-01-10T08:37:49;31.60;;;18.08;;
21206;SDS011;10761;48.532;8.026;2024-01-10T08:40:15;28.60;;;17.20;;
21206;SDS011;10761;48.532;8.026;2024-01-10T08:42:42;31.92;;;15.77;;
21206;SDS011;10761;48.532;8.026;2024-01-10T08:45:08;34.72;;;16.02;;
21206;SDS011;10761;48.532;8.026;2024-01-10T08:47:35;27.52;;;16.50;;
21206;SDS011;10761;48.532;8.026;2024-01-10T08:50:02;29.08;;;15.90;;
21206;SDS011;10761;48.532;8.026;2024-01-10T08:52:30;26.20;;;16.45;;
21206;SDS011;10761;48.532;8.026;2024-01-10T08:54:56;30.25;;;16.52;;
21206;SDS011;10761;48.532;8.026;2024-01-10T08:57:21;32.10;;;16.70;;
21206;SDS011;10761;48.532;8.026;2024-01-10T08:59:47;31.15;;;16.77;;
21206;SDS011;10761;48.532;8.026;2024-01-10T09:02:13;27.25;;;16.33;;
21206;SDS011;10761;48.532;8.026;2024-01-10T09:04:39;29.83;;;15.70;;
21206;SDS011;10761;48.532;8.026;2024-01-10T09:07:04;27.42;;;17.00;;
21206;SDS011;10761;48.532;8.026;2024-01-10T09:09:30;27.92;;;16.52;;
21206;SDS011;10761;48.532;8.026;2024-01-10T09:11:56;27.15;;;16.60;;
21206;SDS011;10761;48.532;8.026;2024-01-10T09:14:21;28.67;;;17.33;;
21206;SDS011;10761;48.532;8.026;2024-01-10T09:16:47;27.55;;;17.52;;
21206;SDS011;10761;48.532;8.026;2024-01-10T09:19:12;29.48;;;18.23;;
21206;SDS011;10761;48.532;8.026;2024-01-10T09:21:38;29.17;;;17.58;;
21206;SDS011;10761;48.532;8.026;2024-01-10T09:24:03;29.52;;;18.58;;
21206;SDS011;10761;48.532;8.026;2024-01-10T09:26:33;28.02;;;17.92;;
21206;SDS011;10761;48.532;8.026;2024-01-10T09:28:59;27.70;;;17.83;;
21206;SDS011;10761;48.532;8.026;2024-01-10T09:31:25;28.30;;;18.20;;
21206;SDS011;10761;48.532;8.026;2024-01-10T09:33:50;33.08;;;19.90;;
21206;SDS011;10761;48.532;8.026;2024-01-10T09:36:16;38.03;;;20.40;;
21206;SDS011;10761;48.532;8.026;2024-01-10T09:38:42;32.85;;;20.52;;
21206;SDS011;10761;48.532;8.026;2024-01-10T09:41:07;33.22;;;20.17;;
21206;SDS011;10761;48.532;8.026;2024-01-10T09:43:33;31.20;;;19.55;;
21206;SDS011;10761;48.532;8.026;2024-01-10T09:46:00;35.33;;;20.73;;
21206;SDS011;10761;48.532;8.026;2024-01-10T09:48:27;34.30;;;21.10;;
21206;SDS011;10761;48.532;8.026;2024-01-10T09:50:54;30.65;;;19.88;;
21206;SDS011;10761;48.532;8.026;2024-01-10T09:53:24;33.83;;;20.38;;
21206;SDS011;10761;48.532;8.026;2024-01-10T09:55:56;31.67;;;19.25;;
21206;SDS011;10761;48.532;8.026;2024-01-10T09:58:23;29.60;;;18.48;;
21206;SDS011;10761;48.532;8.026;2024-01-10T10:00:50;29.50;;;18.15;;
21206;SDS011;10761;48.532;8.026;2024-01-10T10:03:16;31.55;;;18.73;;
21206;SDS011;10761;48.532;8.026;2024-01-10T10:05:43;30.88;;;18.50;;
21206;SDS011;10761;48.532;8.026;2024-01-10T10:08:13;27.38;;;18.15;;
21206;SDS011;10761;48.532;8.026;2024-01-10T10:10:48;28.88;;;17.35;;
21206;SDS011;10761;48.532;8.026;2024-01-10T10:13:24;29.38;;;17.70;;
21206;SDS011;10761;48.532;8.026;2024-01-10T10:15:57;25.58;;;17.60;;
21206;SDS011;10761;48.532;8.026;2024-01-10T10:18:24;28.60;;;17.30;;
21206;SDS011;10761;48.532;8.026;2024-01-10T10:21:03;33.40;;;18.40;;
21206;SDS011;10761;48.532;8.026;2024-01-10T10:23:39;27.60;;;19.38;;
21206;SDS011;10761;48.532;8.026;2024-01-10T10:26:09;29.70;;;19.02;;
21206;SDS011;10761;48.532;8.026;2024-01-10T10:28:36;32.47;;;20.85;;
21206;SDS011;10761;48.532;8.026;2024-01-10T10:31:01;30.33;;;20.30;;
21206;SDS011;10761;48.532;8.026;2024-01-10T10:33:27;29.50;;;19.45;;
21206;SDS011;10761;48.532;8.026;2024-01-10T10:35:54;27.65;;;18.58;;
21206;SDS011;10761;48.532;8.026;2024-01-10T10:38:21;29.42;;;19.77;;
21206;SDS011;10761;48.532;8.026;2024-01-10T10:40:47;27.75;;;19.30;;
21206;SDS011;10761;48.532;8.026;2024-01-10T10:43:13;24.08;;;17.98;;
21206;SDS011;10761;48.532;8.026;2024-01-10T10:45:45;26.08;;;17.98;;
21206;SDS011;10761;48.532;8.026;2024-01-10T10:48:13;26.77;;;17.65;;
21206;SDS011;10761;48.532;8.026;2024-01-10T10:50:42;26.25;;;16.67;;
21206;SDS011;10761;48.532;8.026;2024-01-10T10:53:25;25.10;;;16.77;;
21206;SDS011;10761;48.532;8.026;2024-01-10T10:55:53;24.15;;;16.05;;
21206;SDS011;10761;48.532;8.026;2024-01-10T10:58:20;28.15;;;16.27;;
21206;SDS011;10761;48.532;8.026;2024-01-10T11:00:46;24.80;;;15.88;;
21206;SDS011;10761;48.532;8.026;2024-01-10T11:03:13;22.98;;;14.77;;
21206;SDS011;10761;48.532;8.026;2024-01-10T11:05:40;23.75;;;15.35;;
21206;SDS011;10761;48.532;8.026;2024-01-10T11:08:07;25.30;;;14.82;;
21206;SDS011;10761;48.532;8.026;2024-01-10T11:10:36;23.67;;;15.68;;
21206;SDS011;10761;48.532;8.026;2024-01-10T11:21:50;22.38;;;14.77;;
21206;SDS011;10761;48.532;8.026;2024-01-10T11:24:31;23.02;;;15.07;;
21206;SDS011;10761;48.532;8.026;2024-01-10T11:27:13;23.17;;;15.55;;
21206;SDS011;10761;48.532;8.026;2024-01-10T11:29:40;26.40;;;15.77;;
21206;SDS011;10761;48.532;8.026;2024-01-10T11:32:12;21.63;;;14.73;;
21206;SDS011;10761;48.532;8.026;2024-01-10T11:34:55;24.25;;;15.18;;
21206;SDS011;10761;48.532;8.026;2024-01-10T11:37:21;21.45;;;15.10;;
21206;SDS011;10761;48.532;8.026;2024-01-10T11:39:47;28.75;;;14.43;;
21206;SDS011;10761;48.532;8.026;2024-01-10T11:42:22;23.65;;;14.73;;
21206;SDS011;10761;48.532;8.026;2024-01-10T11:44:49;22.05;;;15.15;;
21206;SDS011;10761;48.532;8.026;2024-01-10T11:47:15;22.88;;;14.73;;
21206;SDS011;10761;48.532;8.026;2024-01-10T11:49:53;23.67;;;15.63;;
21206;SDS011;10761;48.532;8.026;2024-01-10T11:52:22;23.98;;;15.95;;
21206;SDS011;10761;48.532;8.026;2024-01-10T11:54:49;22.08;;;14.38;;
21206;SDS011;10761;48.532;8.026;2024-01-10T11:57:21;22.58;;;14.55;;
21206;SDS011;10761;48.532;8.026;2024-01-10T11:59:50;26.48;;;15.85;;
21206;SDS011;10761;48.532;8.026;2024-01-10T12:02:18;25.45;;;15.32;;
21206;SDS011;10761;48.532;8.026;2024-01-10T12:04:44;22.70;;;14.32;;
21206;SDS011;10761;48.532;8.026;2024-01-10T12:07:11;23.20;;;15.00;;
21206;SDS011;10761;48.532;8.026;2024-01-10T12:09:37;25.30;;;15.70;;
21206;SDS011;10761;48.532;8.026;2024-01-10T12:12:03;23.92;;;14.88;;
21206;SDS011;10761;48.532;8.026;2024-01-10T12:14:29;25.35;;;15.27;;
21206;SDS011;10761;48.532;8.026;2024-01-10T12:16:55;26.45;;;15.52;;
21206;SDS011;10761;48.532;8.026;2024-01-10T12:19:21;26.98;;;15.10;;
21206;SDS011;10761;48.532;8.026;2024-01-10T12:21:48;25.08;;;14.68;;
21206;SDS011;10761;48.532;8.026;2024-01-10T12:24:14;25.90;;;15.55;;
21206;SDS011;10761;48.532;8.026;2024-01-10T12:26:43;24.63;;;14.93;;
21206;SDS011;10761;48.532;8.026;2024-01-10T12:29:12;22.95;;;14.30;;
21206;SDS011;10761;48.532;8.026;2024-01-10T12:31:37;23.17;;;15.75;;
21206;SDS011;10761;48.532;8.026;2024-01-10T12:34:04;21.02;;;14.70;;
21206;SDS011;10761;48.532;8.026;2024-01-10T12:36:33;23.63;;;15.70;;
21206;SDS011;10761;48.532;8.026;2024-01-10T12:38:58;22.98;;;14.80;;
21206;SDS011;10761;48.532;8.026;2024-01-10T12:41:24;23.77;;;15.85;;
21206;SDS011;10761;48.532;8.026;2024-01-10T12:43:54;21.48;;;15.18;;
21206;SDS011;10761;48.532;8.026;2024-01-10T12:46:20;21.80;;;15.35;;
21206;SDS011;10761;48.532;8.026;2024-01-10T12:48:57;22.92;;;15.18;;
21206;SDS011;10761;48.532;8.026;2024-01-10T12:51:30;23.38;;;16.40;;
21206;SDS011;10761;48.532;8.026;2024-01-10T12:54:00;24.92;;;16.30;;
21206;SDS011;10761;48.532;8.026;2024-01-10T12:56:26;25.20;;;16.17;;
21206;SDS011;10761;48.532;8.026;2024-01-10T12:58:52;23.20;;;15.95;;
21206;SDS011;10761;48.532;8.026;2024-01-10T13:01:20;23.08;;;16.08;;
21206;SDS011;10761;48.532;8.026;2024-01-10T13:03:46;20.73;;;15.60;;
21206;SDS011;10761;48.532;8.026;2024-01-10T13:06:13;23.35;;;16.13;;
21206;SDS011;10761;48.532;8.026;2024-01-10T13:08:39;23.42;;;15.18;;
21206;SDS011;10761;48.532;8.026;2024-01-10T13:11:05;22.33;;;16.35;;
21206;SDS011;10761;48.532;8.026;2024-01-10T13:13:37;23.27;;;16.13;;
21206;SDS011;10761;48.532;8.026;2024-01-10T13:16:03;20.55;;;15.32;;
21206;SDS011;10761;48.532;8.026;2024-01-10T13:18:29;22.38;;;15.27;;
21206;SDS011;10761;48.532;8.026;2024-01-10T13:20:55;20.65;;;15.68;;
21206;SDS011;10761;48.532;8.026;2024-01-10T13:23:21;22.73;;;15.80;;
21206;SDS011;10761;48.532;8.026;2024-01-10T13:25:48;24.33;;;16.48;;
21206;SDS011;10761;48.532;8.026;2024-01-10T13:28:13;21.20;;;15.32;;
21206;SDS011;10761;48.532;8.026;2024-01-10T13:30:40;25.25;;;15.68;;
21206;SDS011;10761;48.532;8.026;2024-01-10T13:33:07;23.48;;;15.85;;
21206;SDS011;10761;48.532;8.026;2024-01-10T13:35:34;21.20;;;16.48;;
21206;SDS011;10761;48.532;8.026;2024-01-10T13:38:00;21.33;;;15.80;;
21206;SDS011;10761;48.532;8.026;2024-01-10T13:40:25;23.80;;;17.02;;
21206;SDS011;10761;48.532;8.026;2024-01-10T13:42:51;26.73;;;17.23;;
21206;SDS011;10761;48.532;8.026;2024-01-10T13:45:18;25.23;;;17.38;;
21206;SDS011;10761;48.532;8.026;2024-01-10T13:47:45;25.30;;;17.42;;
21206;SDS011;10761;48.532;8.026;2024-01-10T13:50:11;27.25;;;17.88;;
21206;SDS011;10761;48.532;8.026;2024-01-10T13:52:36;29.33;;;18.45;;
21206;SDS011;10761;48.532;8.026;2024-01-10T13:55:02;27.05;;;17.23;;
21206;SDS011;10761;48.532;8.026;2024-01-10T13:57:31;27.45;;;16.98;;
21206;SDS011;10761;48.532;8.026;2024-01-10T13:59:57;26.67;;;17.58;;
21206;SDS011;10761;48.532;8.026;2024-01-10T14:02:23;33.00;;;17.17;;
21206;SDS011;10761;48.532;8.026;2024-01-10T14:04:50;32.25;;;16.98;;
21206;SDS011;10761;48.532;8.026;2024-01-10T14:07:16;26.55;;;17.02;;
21206;SDS011;10761;48.532;8.026;2024-01-10T14:09:41;27.17;;;16.90;;
21206;SDS011;10761;48.532;8.026;2024-01-10T14:12:07;27.98;;;16.88;;
21206;SDS011;10761;48.532;8.026;2024-01-10T14:14:33;26.30;;;16.58;;
21206;SDS011;10761;48.532;8.026;2024-01-10T14:16:59;28.55;;;17.15;;
21206;SDS011;10761;48.532;8.026;2024-01-10T14:19:25;28.45;;;16.67;;
21206;SDS011;10761;48.532;8.026;2024-01-10T14:21:51;28.02;;;16.92;;
21206;SDS011;10761;48.532;8.026;2024-01-10T14:24:17;30.30;;;17.48;;
21206;SDS011;10761;48.532;8.026;2024-01-10T14:26:43;25.92;;;16.08;;